Time;durP1;ratioP1;P1;durP2;ratioP2;P2;SDS_P1;SDS_P2;PMS_P1;PMS_P2;Temp;Humidity;BMP_temperature;BMP_pressure;BME280_temperature;BME280_humidity;BME280_pressure;Samples;Min_cycle;Max_cycle;Signal;HPM_P1;HPM_P2
2023/01/08 00:00:11;;;;;;;;;;;;;;;5.97;73.06;97775.88;7366687;19;19941;-83
2023/01/08 00:02:38;;;;;;;;;;;;;;;5.97;72.57;97781.13;7365387;19;19922;-83
2023/01/08 00:05:05;;;;;;;;;;;;;;;5.87;73.36;97780.28;7365575;19;19925;-82
2023/01/08 00:07:32;;;;;;;;;;;;;;;5.97;73.04;97780.31;7366031;19;19915;-83
2023/01/08 00:09:59;;;;;;;;;;;;;;;6.07;72.57;97778.50;7365692;19;20765;-83
2023/01/08 00:12:25;;;;;;;;;;;;;;;6.07;72.26;97765.34;7364352;19;19922;-83
2023/01/08 00:14:58;;;;;;;;;;;;;;;6.01;73.30;97764.13;7364524;19;19929;-83
2023/01/08 00:17:24;;;;;;;;;;;;;;;6.10;72.64;97755.38;7368617;19;19918;-82
2023/01/08 00:19:57;;;;;;;;;;;;;;;6.06;72.55;97763.72;7368617;19;19938;-83
2023/01/08 00:22:24;;;;;;;;;;;;;;;6.15;72.85;97762.84;7367826;19;20015;-84
2023/01/08 00:24:50;;;;;;;;;;;;;;;6.29;72.26;97744.00;7366545;19;19923;-82
2023/01/08 00:27:17;;;;;;;;;;;;;;;6.22;72.29;97752.59;7369366;19;20675;-83
2023/01/08 00:29:47;;;;;;;;;;;;;;;6.06;72.72;97754.03;7365994;19;19918;-83
2023/01/08 00:32:13;;;;;;;;;;;;;;;6.14;72.20;97751.53;7368480;19;20848;-82
2023/01/08 00:34:40;;;;;;;;;;;;;;;6.25;72.34;97742.63;7362656;19;19954;-82
2023/01/08 00:37:07;;;;;;;;;;;;;;;6.09;72.78;97743.25;7366136;19;19925;-81
2023/01/08 00:39:37;;;;;;;;;;;;;;;6.17;72.06;97754.84;7366130;19;20037;-83
2023/01/08 00:42:04;;;;;;;;;;;;;;;6.12;72.77;97744.75;7367012;19;19922;-82
2023/01/08 00:44:30;;;;;;;;;;;;;;;6.05;72.54;97741.03;7363539;19;20826;-83
2023/01/08 00:46:58;;;;;;;;;;;;;;;6.21;72.60;97729.94;7373342;19;19941;-84
2023/01/08 00:49:24;;;;;;;;;;;;;;;6.20;72.42;97720.41;7370919;19;19919;-82
2023/01/08 00:51:51;;;;;;;;;;;;;;;6.29;72.25;97715.13;7362794;19;19926;-85
2023/01/08 00:54:20;;;;;;;;;;;;;;;6.36;71.64;97708.28;7366590;19;19936;-82
2023/01/08 00:56:49;;;;;;;;;;;;;;;6.38;71.96;97697.66;7365227;19;19978;-82
2023/01/08 00:59:22;;;;;;;;;;;;;;;6.38;72.13;97703.72;7363513;19;19944;-82
2023/01/08 01:01:48;;;;;;;;;;;;;;;6.34;71.54;97704.97;7359509;19;19923;-83
2023/01/08 01:04:18;;;;;;;;;;;;;;;6.46;71.35;97705.63;7361284;19;19915;-82
2023/01/08 01:06:45;;;;;;;;;;;;;;;6.32;71.79;97714.00;7363532;19;19918;-82
2023/01/08 01:09:12;;;;;;;;;;;;;;;6.03;72.53;97701.81;7368037;19;19915;-83
2023/01/08 01:11:38;;;;;;;;;;;;;;;6.36;71.56;97703.03;7365496;19;19983;-82
2023/01/08 01:14:05;;;;;;;;;;;;;;;6.29;71.79;97691.47;7362575;19;20661;-83
2023/01/08 01:16:32;;;;;;;;;;;;;;;6.38;71.60;97679.25;7363043;19;19927;-82
2023/01/08 01:18:58;;;;;;;;;;;;;;;6.12;71.96;97685.16;7370025;19;19926;-82
2023/01/08 01:21:28;;;;;;;;;;;;;;;6.17;72.68;97687.38;7365323;19;19943;-83
2023/01/08 01:23:55;;;;;;;;;;;;;;;6.30;72.41;97687.03;7367676;19;19947;-82
2023/01/08 01:26:23;;;;;;;;;;;;;;;5.93;73.05;97687.84;7365395;19;19946;-82
2023/01/08 01:28:50;;;;;;;;;;;;;;;6.06;73.18;97688.38;7365402;19;21776;-82
2023/01/08 01:31:17;;;;;;;;;;;;;;;6.27;72.81;97701.28;7364617;19;21146;-81
2023/01/08 01:33:44;;;;;;;;;;;;;;;6.32;72.06;97708.75;7364052;19;19939;-83
2023/01/08 01:36:12;;;;;;;;;;;;;;;6.29;72.20;97695.88;7359949;19;19923;-83
2023/01/08 01:38:41;;;;;;;;;;;;;;;6.42;72.13;97691.13;7362295;19;19927;-83
2023/01/08 01:41:10;;;;;;;;;;;;;;;6.42;72.22;97688.47;7361125;19;20412;-82
2023/01/08 01:43:40;;;;;;;;;;;;;;;6.45;71.53;97700.50;7355212;19;20459;-82
2023/01/08 01:46:22;;;;;;;;;;;;;;;5.97;73.33;97706.78;7356088;19;19922;-83
2023/01/08 01:48:50;;;;;;;;;;;;;;;6.03;73.73;97714.09;7355497;19;20135;-83
2023/01/08 01:51:17;;;;;;;;;;;;;;;5.96;73.31;97708.59;7357484;19;19915;-82
2023/01/08 01:53:43;;;;;;;;;;;;;;;6.05;73.26;97709.53;7353740;19;19922;-82
2023/01/08 01:56:10;;;;;;;;;;;;;;;6.08;73.09;97712.72;7359022;19;19938;-83
2023/01/08 01:58:40;;;;;;;;;;;;;;;6.28;72.58;97705.56;7360613;19;19907;-84
2023/01/08 02:01:09;;;;;;;;;;;;;;;6.36;72.12;97710.09;7361389;19;19986;-83
2023/01/08 02:03:37;;;;;;;;;;;;;;;6.42;71.86;97704.25;7357403;19;19919;-83
2023/01/08 02:06:22;;;;;;;;;;;;;;;6.46;72.01;97703.00;7361624;19;19927;-82
2023/01/08 02:08:51;;;;;;;;;;;;;;;6.37;71.92;97703.84;7361615;19;20270;-82
2023/01/08 02:11:44;;;;;;;;;;;;;;;6.42;71.56;97696.38;7360120;19;19918;-82
2023/01/08 02:14:16;;;;;;;;;;;;;;;6.50;71.26;97696.50;7358857;19;19931;-83
2023/01/08 02:16:45;;;;;;;;;;;;;;;6.51;71.25;97684.16;7361051;19;19922;-83
2023/01/08 02:19:41;;;;;;;;;;;;;;;6.36;71.67;97673.31;7361750;19;19926;-82
2023/01/08 02:22:26;;;;;;;;;;;;;;;6.36;71.70;97676.75;7356895;19;19925;-82
2023/01/08 02:24:55;;;;;;;;;;;;;;;6.38;71.66;97668.75;7362658;19;20528;-82
2023/01/08 02:27:23;;;;;;;;;;;;;;;6.36;71.63;97666.25;7368658;19;20325;-82
2023/01/08 02:29:50;;;;;;;;;;;;;;;6.40;71.79;97660.69;7367837;19;20245;-82
2023/01/08 02:32:16;;;;;;;;;;;;;;;6.56;71.21;97643.34;7368159;19;20272;-83
2023/01/08 02:34:43;;;;;;;;;;;;;;;6.21;71.54;97643.25;7365744;19;20449;-82
2023/01/08 02:37:10;;;;;;;;;;;;;;;6.31;72.03;97639.59;7369263;19;19923;-83
2023/01/08 02:39:43;;;;;;;;;;;;;;;6.38;72.18;97635.41;7367083;19;19923;-83
2023/01/08 02:42:11;;;;;;;;;;;;;;;6.32;72.01;97624.69;7363750;19;19954;-83
2023/01/08 02:44:53;;;;;;;;;;;;;;;6.22;72.21;97631.78;7359894;19;19911;-83
2023/01/08 02:47:25;;;;;;;;;;;;;;;6.15;73.08;97621.84;7368779;19;19925;-83
2023/01/08 02:49:53;;;;;;;;;;;;;;;6.35;72.50;97622.56;7365786;19;19923;-84
2023/01/08 02:52:20;;;;;;;;;;;;;;;6.45;71.79;97617.28;7367539;19;19923;-82
2023/01/08 02:54:46;;;;;;;;;;;;;;;6.30;72.35;97613.50;7361583;19;20355;-83
2023/01/08 02:57:13;;;;;;;;;;;;;;;6.32;72.50;97611.56;7370319;19;19929;-83
2023/01/08 02:59:42;;;;;;;;;;;;;;;6.51;71.78;97615.84;7364458;19;19922;-83
2023/01/08 03:02:08;;;;;;;;;;;;;;;6.54;70.74;97613.75;7362328;19;19918;-83
2023/01/08 03:04:36;;;;;;;;;;;;;;;6.60;71.47;97605.25;7359023;19;20002;-83
2023/01/08 03:07:03;;;;;;;;;;;;;;;6.59;70.97;97605.41;7364248;19;19930;-83
2023/01/08 03:09:30;;;;;;;;;;;;;;;6.42;71.82;97603.59;7362307;19;19919;-83
2023/01/08 03:11:59;;;;;;;;;;;;;;;6.44;71.74;97599.84;7371525;19;20008;-83
2023/01/08 03:14:27;;;;;;;;;;;;;;;6.51;71.67;97597.44;7362736;19;19922;-83
2023/01/08 03:16:57;;;;;;;;;;;;;;;6.48;71.58;97590.69;7369625;19;19926;-83
2023/01/08 03:19:27;;;;;;;;;;;;;;;6.47;71.14;97598.72;7367121;19;19918;-83
2023/01/08 03:21:54;;;;;;;;;;;;;;;6.37;71.84;97593.50;7364456;19;19918;-83
2023/01/08 03:24:21;;;;;;;;;;;;;;;6.13;72.50;97601.97;7363265;19;20212;-83
2023/01/08 03:26:48;;;;;;;;;;;;;;;6.28;72.32;97591.78;7366964;19;20390;-83
2023/01/08 03:29:15;;;;;;;;;;;;;;;6.24;72.52;97587.78;7368233;19;19926;-83
2023/01/08 03:31:42;;;;;;;;;;;;;;;6.38;72.63;97579.41;7364034;19;19923;-83
2023/01/08 03:34:09;;;;;;;;;;;;;;;6.58;72.12;97575.69;7369039;19;19955;-83
2023/01/08 03:36:35;;;;;;;;;;;;;;;6.69;71.70;97573.78;7361536;19;19914;-83
2023/01/08 03:39:07;;;;;;;;;;;;;;;6.69;72.11;97571.16;7369222;19;19919;-83
2023/01/08 03:41:34;;;;;;;;;;;;;;;6.58;71.88;97565.19;7360094;19;19923;-83
2023/01/08 03:44:00;;;;;;;;;;;;;;;6.59;71.98;97566.81;7364706;19;19931;-83
2023/01/08 03:46:34;;;;;;;;;;;;;;;6.71;71.04;97559.50;7362297;19;19923;-83
2023/01/08 03:49:01;;;;;;;;;;;;;;;6.79;70.93;97556.97;7365570;19;20566;-83
2023/01/08 03:51:28;;;;;;;;;;;;;;;6.57;71.77;97560.88;7367707;19;20500;-83
2023/01/08 03:53:55;;;;;;;;;;;;;;;6.79;70.79;97553.50;7362489;19;19929;-83
2023/01/08 03:56:22;;;;;;;;;;;;;;;6.82;71.21;97555.84;7363990;19;20584;-83
2023/01/08 03:58:48;;;;;;;;;;;;;;;6.72;71.30;97555.09;7366546;19;19919;-83
2023/01/08 04:01:15;;;;;;;;;;;;;;;6.83;71.04;97560.13;7365711;19;20299;-82
2023/01/08 04:03:42;;;;;;;;;;;;;;;6.83;71.21;97552.22;7362669;19;20357;-83
2023/01/08 04:06:08;;;;;;;;;;;;;;;6.81;71.30;97551.56;7364465;19;19926;-83
2023/01/08 04:08:35;;;;;;;;;;;;;;;6.94;70.34;97544.09;7366856;19;20515;-83
2023/01/08 04:11:02;;;;;;;;;;;;;;;6.76;70.75;97540.66;7368202;19;19938;-83
2023/01/08 04:13:28;;;;;;;;;;;;;;;6.76;70.77;97544.09;7364710;19;21688;-83
2023/01/08 04:15:56;;;;;;;;;;;;;;;6.77;71.52;97539.69;7365235;19;19953;-83
2023/01/08 04:18:23;;;;;;;;;;;;;;;6.69;71.67;97537.84;7369732;19;19933;-83
2023/01/08 04:20:50;;;;;;;;;;;;;;;6.66;71.81;97539.91;7366851;19;20005;-83
2023/01/08 04:23:16;;;;;;;;;;;;;;;6.64;71.52;97540.09;7365668;19;19911;-83
2023/01/08 04:25:45;;;;;;;;;;;;;;;6.63;72.00;97537.59;7367739;19;20394;-83
2023/01/08 04:28:11;;;;;;;;;;;;;;;6.63;71.55;97529.72;7367764;19;20352;-82
2023/01/08 04:30:38;;;;;;;;;;;;;;;6.71;71.12;97529.78;7369179;19;20237;-82
2023/01/08 04:33:05;;;;;;;;;;;;;;;6.63;71.21;97541.03;7369198;19;20217;-83
2023/01/08 04:35:31;;;;;;;;;;;;;;;6.74;71.15;97537.34;7362469;19;20677;-83
2023/01/08 04:37:58;;;;;;;;;;;;;;;6.90;71.02;97541.91;7371935;19;19918;-83
2023/01/08 04:40:24;;;;;;;;;;;;;;;6.76;71.13;97540.66;7366796;19;19927;-83
2023/01/08 04:42:51;;;;;;;;;;;;;;;6.58;71.08;97548.56;7361571;19;19925;-82
2023/01/08 04:45:17;;;;;;;;;;;;;;;6.51;71.66;97529.94;7368882;19;19914;-82
2023/01/08 04:47:47;;;;;;;;;;;;;;;6.41;72.10;97537.09;7367627;19;20404;-82
2023/01/08 04:50:14;;;;;;;;;;;;;;;6.45;71.61;97542.84;7366976;19;19931;-83
2023/01/08 04:52:40;;;;;;;;;;;;;;;6.54;71.95;97555.09;7370350;19;19923;-82
2023/01/08 04:55:07;;;;;;;;;;;;;;;6.44;72.29;97556.97;7366333;19;19926;-82
2023/01/08 04:57:33;;;;;;;;;;;;;;;6.64;71.84;97547.97;7363333;19;19918;-82
2023/01/08 05:00:00;;;;;;;;;;;;;;;6.87;71.47;97545.66;7368111;19;20509;-82
2023/01/08 05:02:26;;;;;;;;;;;;;;;6.94;71.45;97546.72;7365042;19;20296;-84
2023/01/08 05:04:53;;;;;;;;;;;;;;;6.85;72.08;97542.41;7359688;19;19922;-83
2023/01/08 05:07:20;;;;;;;;;;;;;;;7.03;71.92;97545.81;7362146;19;19920;-82
2023/01/08 05:09:49;;;;;;;;;;;;;;;7.04;72.54;97550.09;7364143;19;20841;-83
2023/01/08 05:12:15;;;;;;;;;;;;;;;7.03;72.87;97551.06;7364027;19;19919;-81
2023/01/08 05:14:42;;;;;;;;;;;;;;;7.09;72.74;97556.72;7362577;19;19915;-83
2023/01/08 05:17:08;;;;;;;;;;;;;;;7.01;72.98;97563.53;7367357;19;19918;-82
2023/01/08 05:19:35;;;;;;;;;;;;;;;7.01;72.98;97560.91;7361688;19;19925;-82
2023/01/08 05:22:03;;;;;;;;;;;;;;;7.10;72.67;97563.59;7364597;19;19922;-82
2023/01/08 05:24:32;;;;;;;;;;;;;;;7.05;72.93;97564.06;7363410;19;20492;-82
2023/01/08 05:26:59;;;;;;;;;;;;;;;7.22;72.87;97565.84;7369837;19;19907;-82
2023/01/08 05:29:25;;;;;;;;;;;;;;;7.43;71.77;97570.72;7366107;19;19929;-83
2023/01/08 05:31:52;;;;;;;;;;;;;;;7.52;71.41;97570.78;7367372;19;19922;-82
2023/01/08 05:34:18;;;;;;;;;;;;;;;7.57;71.31;97560.59;7364574;19;19918;-83
2023/01/08 05:36:45;;;;;;;;;;;;;;;7.66;71.35;97562.28;7366388;19;19926;-82
2023/01/08 05:39:12;;;;;;;;;;;;;;;7.78;70.85;97558.41;7368732;19;19947;-83
2023/01/08 05:41:38;;;;;;;;;;;;;;;7.94;70.85;97548.91;7366614;19;19923;-80
2023/01/08 05:44:05;;;;;;;;;;;;;;;8.09;70.79;97549.97;7366977;19;19919;-82
2023/01/08 05:46:32;;;;;;;;;;;;;;;8.30;70.59;97547.72;7363402;19;19922;-83
2023/01/08 05:48:58;;;;;;;;;;;;;;;8.38;70.43;97543.44;7367793;19;20333;-83
2023/01/08 05:51:25;;;;;;;;;;;;;;;8.52;70.31;97542.81;7370001;19;19911;-82
2023/01/08 05:53:52;;;;;;;;;;;;;;;8.55;70.91;97547.78;7368296;19;19951;-82
2023/01/08 05:56:19;;;;;;;;;;;;;;;8.41;72.08;97548.41;7370175;19;19933;-81
2023/01/08 05:58:46;;;;;;;;;;;;;;;8.35;73.00;97545.41;7370442;19;19922;-81
2023/01/08 06:01:14;;;;;;;;;;;;;;;8.54;73.13;97556.69;7381783;19;19927;-81
2023/01/08 06:03:41;;;;;;;;;;;;;;;8.41;73.85;97554.50;7377898;19;20016;-82
2023/01/08 06:06:09;;;;;;;;;;;;;;;8.39;73.72;97555.63;7379667;19;19926;-82
2023/01/08 06:08:35;;;;;;;;;;;;;;;8.47;74.12;97559.13;7384613;19;19931;-83
2023/01/08 06:11:03;;;;;;;;;;;;;;;8.45;74.42;97557.63;7386841;19;19923;-82
2023/01/08 06:13:30;;;;;;;;;;;;;;;8.50;74.61;97558.78;7387522;19;20265;-83
2023/01/08 06:15:57;;;;;;;;;;;;;;;8.40;75.16;97558.16;7383098;19;19929;-82
2023/01/08 06:18:24;;;;;;;;;;;;;;;8.40;75.93;97557.28;7387883;19;19922;-83
2023/01/08 06:20:51;;;;;;;;;;;;;;;8.33;75.45;97549.19;7389327;19;19919;-83
2023/01/08 06:23:17;;;;;;;;;;;;;;;8.42;75.42;97539.50;7384952;19;19919;-83
2023/01/08 06:25:44;;;;;;;;;;;;;;;8.31;76.27;97540.63;7384564;19;19934;-82
2023/01/08 06:28:10;;;;;;;;;;;;;;;8.28;76.27;97541.78;7390451;19;19927;-83
2023/01/08 06:30:37;;;;;;;;;;;;;;;8.36;76.40;97541.78;7395932;19;21843;-83
2023/01/08 06:33:06;;;;;;;;;;;;;;;8.35;76.83;97540.16;7393321;19;19947;-82
2023/01/08 06:35:33;;;;;;;;;;;;;;;8.30;77.02;97533.72;7389766;19;19990;-83
2023/01/08 06:37:59;;;;;;;;;;;;;;;8.29;77.17;97532.91;7394347;19;19918;-82
2023/01/08 06:40:28;;;;;;;;;;;;;;;8.29;77.16;97527.63;7392316;19;19986;-83
2023/01/08 06:42:55;;;;;;;;;;;;;;;8.24;77.81;97527.28;7394161;19;19939;-83
2023/01/08 06:45:21;;;;;;;;;;;;;;;8.26;77.56;97525.28;7392726;19;19924;-83
2023/01/08 06:47:48;;;;;;;;;;;;;;;8.30;77.17;97521.34;7392710;19;19923;-83
2023/01/08 06:50:17;;;;;;;;;;;;;;;8.33;77.13;97520.22;7396498;19;19922;-83
2023/01/08 06:52:50;;;;;;;;;;;;;;;8.33;77.28;97531.56;7396647;19;19923;-83
2023/01/08 06:55:17;;;;;;;;;;;;;;;8.31;77.55;97536.16;7392860;19;19926;-83
2023/01/08 06:57:43;;;;;;;;;;;;;;;8.21;78.04;97538.13;7398348;19;19915;-83
2023/01/08 07:00:10;;;;;;;;;;;;;;;8.23;78.04;97536.16;7394605;19;19943;-83
2023/01/08 07:02:37;;;;;;;;;;;;;;;8.25;77.56;97538.66;7391453;19;19922;-82
2023/01/08 07:05:04;;;;;;;;;;;;;;;8.21;77.42;97537.31;7390360;19;19978;-81
2023/01/08 07:07:31;;;;;;;;;;;;;;;8.15;77.57;97530.88;7390695;19;19939;-83
2023/01/08 07:09:57;;;;;;;;;;;;;;;8.36;77.02;97536.50;7390250;19;19914;-79
2023/01/08 07:12:24;;;;;;;;;;;;;;;8.29;77.15;97539.94;7386814;19;19929;-83
2023/01/08 07:14:51;;;;;;;;;;;;;;;8.29;76.81;97526.78;7390483;19;19926;-83
2023/01/08 07:17:17;;;;;;;;;;;;;;;8.23;77.04;97541.44;7389415;19;19952;-80
2023/01/08 07:19:44;;;;;;;;;;;;;;;8.30;77.08;97545.06;7394483;19;19926;-82
2023/01/08 07:22:11;;;;;;;;;;;;;;;8.22;77.66;97537.16;7391408;19;19938;-83
2023/01/08 07:24:37;;;;;;;;;;;;;;;8.22;77.62;97539.78;7390866;19;20312;-82
2023/01/08 07:27:04;;;;;;;;;;;;;;;8.16;77.63;97540.41;7392395;19;19933;-82
2023/01/08 07:29:33;;;;;;;;;;;;;;;8.24;77.22;97537.81;7388266;19;20226;-81
2023/01/08 07:32:00;;;;;;;;;;;;;;;8.24;77.46;97540.47;7388205;19;19915;-82
2023/01/08 07:34:26;;;;;;;;;;;;;;;8.19;77.31;97541.91;7387650;19;19914;-80
2023/01/08 07:36:53;;;;;;;;;;;;;;;8.31;77.37;97527.44;7388700;19;19922;-82
2023/01/08 07:39:20;;;;;;;;;;;;;;;8.37;77.33;97532.06;7389510;19;19915;-81
2023/01/08 07:41:46;;;;;;;;;;;;;;;8.28;77.77;97544.41;7386977;19;19986;-83
2023/01/08 07:44:14;;;;;;;;;;;;;;;8.30;77.89;97542.44;7391496;19;19926;-82
2023/01/08 07:46:41;;;;;;;;;;;;;;;8.22;78.36;97544.25;7393488;19;19922;-82
2023/01/08 07:49:07;;;;;;;;;;;;;;;8.08;78.91;97541.25;7387553;19;20581;-82
2023/01/08 07:51:34;;;;;;;;;;;;;;;8.24;78.83;97543.09;7391234;19;19927;-82
2023/01/08 07:54:04;;;;;;;;;;;;;;;8.13;79.35;97538.09;7387863;19;20769;-81
2023/01/08 07:56:30;;;;;;;;;;;;;;;8.14;79.63;97537.13;7390632;19;19918;-81
2023/01/08 07:59:00;;;;;;;;;;;;;;;8.14;79.20;97537.13;7390450;19;19923;-80
2023/01/08 08:01:29;;;;;;;;;;;;;;;8.31;79.28;97538.81;7396898;19;19925;-80
2023/01/08 08:03:56;;;;;;;;;;;;;;;8.18;79.10;97533.19;7387941;19;19918;-81
2023/01/08 08:06:22;;;;;;;;;;;;;;;8.22;79.06;97533.69;7387393;19;19990;-81
2023/01/08 08:08:49;;;;;;;;;;;;;;;8.29;78.87;97535.53;7389962;19;19974;-83
2023/01/08 08:11:15;;;;;;;;;;;;;;;8.20;78.90;97533.84;7392762;19;19923;-81
2023/01/08 08:13:43;;;;;;;;;;;;;;;8.09;79.58;97529.72;7400501;19;19922;-80
2023/01/08 08:16:12;;;;;;;;;;;;;;;8.06;79.45;97535.31;7398363;19;19918;-81
2023/01/08 08:18:38;;;;;;;;;;;;;;;8.06;79.34;97535.31;7392221;19;19919;-81
2023/01/08 08:21:05;;;;;;;;;;;;;;;8.25;79.11;97528.91;7395894;19;19925;-84
2023/01/08 08:23:32;;;;;;;;;;;;;;;8.02;79.55;97535.78;7387933;19;20246;-80
2023/01/08 08:26:03;;;;;;;;;;;;;;;8.12;79.63;97532.00;7393174;19;19921;-84
2023/01/08 08:28:29;;;;;;;;;;;;;;;8.22;79.24;97533.69;7395724;19;19914;-80
2023/01/08 08:31:01;;;;;;;;;;;;;;;8.12;79.63;97534.66;7397485;19;19919;-82
2023/01/08 08:33:27;;;;;;;;;;;;;;;8.15;79.43;97528.22;7396723;19;19919;-82
2023/01/08 08:35:54;;;;;;;;;;;;;;;8.22;79.26;97523.97;7386103;19;19922;-82
2023/01/08 08:38:23;;;;;;;;;;;;;;;8.13;79.32;97522.28;7390300;19;19936;-79
2023/01/08 08:40:50;;;;;;;;;;;;;;;8.08;79.46;97522.81;7386753;19;19911;-81
2023/01/08 08:43:16;;;;;;;;;;;;;;;8.09;79.60;97519.16;7390952;19;20608;-80
2023/01/08 08:45:49;;;;;;;;;;;;;;;8.11;79.14;97517.22;7384134;19;20367;-83
2023/01/08 08:48:16;;;;;;;;;;;;;;;8.12;79.34;97518.84;7382512;19;19915;-81
2023/01/08 08:50:43;;;;;;;;;;;;;;;8.08;79.15;97517.53;7375142;19;19961;-82
2023/01/08 08:53:10;;;;;;;;;;;;;;;8.14;79.26;97519.50;7377392;19;19919;-82
2023/01/08 08:55:37;;;;;;;;;;;;;;;8.08;79.30;97509.63;7382597;19;19918;-81
2023/01/08 08:58:04;;;;;;;;;;;;;;;8.09;79.65;97503.38;7384886;19;19943;-81
2023/01/08 09:00:31;;;;;;;;;;;;;;;8.17;79.25;97509.66;7383497;19;19911;-80
2023/01/08 09:02:58;;;;;;;;;;;;;;;8.22;79.13;97510.81;7383344;19;19932;-80
2023/01/08 09:05:25;;;;;;;;;;;;;;;8.11;79.47;97506.66;7384648;19;20607;-80
2023/01/08 09:07:53;;;;;;;;;;;;;;;8.14;79.56;97503.72;7382746;19;19947;-83
2023/01/08 09:10:20;;;;;;;;;;;;;;;8.20;79.19;97494.31;7382982;19;19939;-83
2023/01/08 09:12:47;;;;;;;;;;;;;;;8.29;78.94;97498.63;7385332;19;19929;-83
2023/01/08 09:15:13;;;;;;;;;;;;;;;8.22;78.65;97499.44;7380068;19;19927;-84
2023/01/08 09:17:40;;;;;;;;;;;;;;;8.29;78.78;97501.28;7380252;19;20275;-81
2023/01/08 09:20:06;;;;;;;;;;;;;;;8.31;78.71;97499.28;7384700;19;19970;-81
2023/01/08 09:22:35;;;;;;;;;;;;;;;8.27;78.58;97500.59;7381435;19;19929;-80
2023/01/08 09:25:02;;;;;;;;;;;;;;;8.27;78.45;97497.97;7379469;19;20636;-81
2023/01/08 09:27:28;;;;;;;;;;;;;;;8.42;78.63;97503.44;7386088;19;20333;-82
2023/01/08 09:29:55;;;;;;;;;;;;;;;8.50;78.35;97510.53;7386393;19;20454;-82
2023/01/08 09:32:22;;;;;;;;;;;;;;;8.51;78.33;97512.19;7386484;19;19935;-81
2023/01/08 09:34:48;;;;;;;;;;;;;;;8.31;78.84;97511.63;7379982;19;20000;-82
2023/01/08 09:37:15;;;;;;;;;;;;;;;8.34;78.71;97509.47;7375855;19;19950;-82
2023/01/08 09:39:42;;;;;;;;;;;;;;;8.33;78.48;97504.41;7378019;19;19919;-80
2023/01/08 09:42:13;;;;;;;;;;;;;;;8.44;78.47;97501.47;7381718;19;19918;-81
2023/01/08 09:44:41;;;;;;;;;;;;;;;8.38;78.29;97503.91;7374099;19;19918;-80
2023/01/08 09:47:18;;;;;;;;;;;;;;;8.24;78.75;97500.94;7377504;19;19922;-82
2023/01/08 09:49:44;;;;;;;;;;;;;;;8.25;79.06;97499.13;7376571;19;19923;-82
2023/01/08 09:52:11;;;;;;;;;;;;;;;8.18;79.39;97504.19;7376922;19;19917;-81
2023/01/08 09:54:39;;;;;;;;;;;;;;;8.26;78.93;97501.56;7369519;19;19915;-82
2023/01/08 09:57:09;;;;;;;;;;;;;;;8.53;77.95;97504.91;7374099;19;20259;-84
2023/01/08 09:59:36;;;;;;;;;;;;;;;8.57;77.81;97500.97;7369013;19;21684;-84
2023/01/08 10:02:02;;;;;;;;;;;;;;;8.57;77.62;97496.53;7375052;19;20328;-83
2023/01/08 10:04:29;;;;;;;;;;;;;;;8.62;77.31;97498.69;7379634;19;19926;-83
2023/01/08 10:07:00;;;;;;;;;;;;;;;8.56;77.12;97500.16;7374132;19;19932;-82
2023/01/08 10:09:30;;;;;;;;;;;;;;;8.61;77.26;97506.75;7373019;19;19919;-83
2023/01/08 10:11:59;;;;;;;;;;;;;;;8.55;77.39;97514.31;7371700;19;19919;-83
2023/01/08 10:14:27;;;;;;;;;;;;;;;8.84;76.91;97505.09;7374451;19;19914;-83
2023/01/08 10:16:55;;;;;;;;;;;;;;;8.68;77.00;97511.19;7376554;19;19943;-81
2023/01/08 10:19:23;;;;;;;;;;;;;;;8.71;77.04;97502.94;7374613;19;19934;-84
2023/01/08 10:21:49;;;;;;;;;;;;;;;8.80;76.67;97498.50;7372529;19;19935;-83
2023/01/08 10:24:16;;;;;;;;;;;;;;;8.65;76.97;97493.06;7374376;19;19918;-84
2023/01/08 10:26:42;;;;;;;;;;;;;;;8.83;76.64;97500.00;7374077;19;19941;-82
2023/01/08 10:29:12;;;;;;;;;;;;;;;8.87;76.63;97502.13;7378709;19;19923;-83
2023/01/08 10:31:47;;;;;;;;;;;;;;;8.70;76.34;97498.69;7379539;19;19939;-83
2023/01/08 10:34:23;;;;;;;;;;;;;;;8.88;76.11;97497.69;7378835;19;19922;-83
2023/01/08 10:36:50;;;;;;;;;;;;;;;9.08;75.67;97479.66;7381827;19;19918;-81
2023/01/08 10:39:22;;;;;;;;;;;;;;;9.03;75.08;97490.75;7383025;19;19922;-82
2023/01/08 10:41:49;;;;;;;;;;;;;;;9.06;75.51;97485.13;7372884;19;19940;-83
2023/01/08 10:44:16;;;;;;;;;;;;;;;9.26;75.25;97479.47;7374887;19;19933;-83
2023/01/08 10:46:44;;;;;;;;;;;;;;;9.04;75.20;97473.91;7374858;19;19919;-82
2023/01/08 10:49:19;;;;;;;;;;;;;;;9.18;74.83;97475.03;7379434;19;19918;-83
2023/01/08 10:51:50;;;;;;;;;;;;;;;9.27;75.10;97465.25;7380906;19;19974;-82
2023/01/08 10:54:36;;;;;;;;;;;;;;;9.34;74.69;97463.59;7384508;19;19918;-81
2023/01/08 10:57:20;;;;;;;;;;;;;;;9.20;74.51;97459.84;7379292;19;19930;-82
2023/01/08 10:59:46;;;;;;;;;;;;;;;9.10;74.94;97462.69;7382555;19;19911;-81
2023/01/08 11:02:33;;;;;;;;;;;;;;;9.28;74.07;97461.66;7388942;19;19922;-83
2023/01/08 11:05:06;;;;;;;;;;;;;;;9.39;74.22;97458.63;7386962;19;19919;-83
2023/01/08 11:07:34;;;;;;;;;;;;;;;9.45;74.51;97463.22;7391898;19;19929;-83
2023/01/08 11:10:00;;;;;;;;;;;;;;;9.60;73.63;97455.41;7386433;19;19933;-81
2023/01/08 11:12:30;;;;;;;;;;;;;;;9.48;73.75;97457.63;7381034;19;19922;-80
2023/01/08 11:14:57;;;;;;;;;;;;;;;9.60;73.55;97445.66;7384809;19;19925;-82
2023/01/08 11:17:24;;;;;;;;;;;;;;;9.55;73.18;97448.00;7385547;19;19931;-81
2023/01/08 11:19:52;;;;;;;;;;;;;;;9.75;73.37;97447.59;7383777;19;20806;-81
2023/01/08 11:22:22;;;;;;;;;;;;;;;9.76;73.01;97457.16;7384098;19;19923;-81
2023/01/08 11:24:49;;;;;;;;;;;;;;;9.88;72.73;97438.09;7380739;19;19939;-83
2023/01/08 11:27:24;;;;;;;;;;;;;;;9.84;72.46;97441.25;7389895;19;19918;-82
2023/01/08 11:29:56;;;;;;;;;;;;;;;9.97;72.49;97441.50;7386802;19;19929;-81
2023/01/08 11:32:36;;;;;;;;;;;;;;;9.86;72.70;97434.81;7406541;19;19933;-80
2023/01/08 11:35:21;;;;;;;;;;;;;;;10.06;72.62;97437.84;7405163;19;19951;-83
2023/01/08 11:37:52;;;;;;;;;;;;;;;10.03;72.31;97424.13;7409187;19;19907;-82
2023/01/08 11:40:39;;;;;;;;;;;;;;;10.08;72.31;97422.63;7414129;19;19918;-83
2023/01/08 11:43:06;;;;;;;;;;;;;;;10.17;72.34;97414.66;7390478;19;19915;-82
2023/01/08 11:45:37;;;;;;;;;;;;;;;10.26;71.56;97408.28;7389642;19;19914;-84
2023/01/08 11:48:26;;;;;;;;;;;;;;;10.35;71.74;97409.06;7392959;19;19923;-82
2023/01/08 11:51:12;;;;;;;;;;;;;;;10.15;71.45;97390.19;7409524;19;19935;-82
2023/01/08 11:53:44;;;;;;;;;;;;;;;10.29;71.54;97387.66;7382110;19;19922;-83
2023/01/08 11:56:15;;;;;;;;;;;;;;;10.26;70.19;97387.13;7388519;19;20337;-83
2023/01/08 11:58:58;;;;;;;;;;;;;;;10.56;70.65;97382.78;7382964;19;20343;-82
2023/01/08 12:01:40;;;;;;;;;;;;;;;10.25;70.75;97383.66;7387423;19;19929;-81
2023/01/08 12:04:17;;;;;;;;;;;;;;;10.42;70.30;97365.88;7383541;19;20437;-83
2023/01/08 12:06:44;;;;;;;;;;;;;;;10.41;70.12;97358.13;7397670;19;19923;-84
2023/01/08 12:09:29;;;;;;;;;;;;;;;9.97;71.91;97372.00;7398089;19;20355;-83
2023/01/08 12:11:59;;;;;;;;;;;;;;;10.29;71.32;97355.94;7390475;19;19925;-83
2023/01/08 12:14:28;;;;;;;;;;;;;;;9.94;71.34;97364.44;7393184;19;19922;-81
2023/01/08 12:16:58;;;;;;;;;;;;;;;9.68;71.19;97360.31;7399849;19;19926;-81
2023/01/08 12:19:30;;;;;;;;;;;;;;;9.99;71.59;97362.91;7399102;19;19943;-82
2023/01/08 12:22:26;;;;;;;;;;;;;;;9.98;70.72;97363.91;7400355;19;19915;-82
2023/01/08 12:25:11;;;;;;;;;;;;;;;9.80;71.47;97350.16;7399416;19;19919;-82
2023/01/08 12:27:38;;;;;;;;;;;;;;;9.62;71.70;97345.97;7402612;19;19914;-82
2023/01/08 12:30:41;;;;;;;;;;;;;;;9.75;71.37;97342.75;7410229;19;19932;-82
2023/01/08 12:33:26;;;;;;;;;;;;;;;9.75;71.27;97341.94;7413939;19;20347;-82
2023/01/08 12:35:53;;;;;;;;;;;;;;;10.10;71.08;97341.34;7402654;19;19967;-84
2023/01/08 12:38:20;;;;;;;;;;;;;;;10.27;70.77;97342.06;7405000;19;19921;-84
2023/01/08 12:40:57;;;;;;;;;;;;;;;9.99;71.04;97336.47;7405338;19;19925;-83
2023/01/08 12:43:25;;;;;;;;;;;;;;;9.97;71.41;97335.81;7401010;19;19998;-83
2023/01/08 12:45:52;;;;;;;;;;;;;;;9.87;71.30;97330.81;7396680;19;19918;-82
2023/01/08 12:48:20;;;;;;;;;;;;;;;9.91;71.79;97322.50;7403894;19;20523;-83
2023/01/08 12:50:49;;;;;;;;;;;;;;;10.09;70.95;97334.41;7404606;19;19939;-84
2023/01/08 12:53:35;;;;;;;;;;;;;;;9.85;71.54;97329.34;7406743;19;19955;-83
2023/01/08 12:56:02;;;;;;;;;;;;;;;9.98;71.65;97324.28;7404205;19;19970;-83
2023/01/08 12:58:33;;;;;;;;;;;;;;;9.98;71.35;97320.78;7414917;19;19922;-83
2023/01/08 13:01:05;;;;;;;;;;;;;;;10.01;70.97;97323.91;7404165;19;19928;-84
2023/01/08 13:03:31;;;;;;;;;;;;;;;10.10;71.09;97319.38;7397050;19;19923;-84